sensor_id;sensor_type;location;lat;lon;timestamp;P1;durP1;ratioP1;P2;durP2;ratioP2
25525;SDS011;13424;48.424;11.258;2022-08-19T00:01:55;20.65;;;17.33;;
25525;SDS011;13424;48.424;11.258;2022-08-19T00:04:26;22.65;;;17.50;;
25525;SDS011;13424;48.424;11.258;2022-08-19T00:07:00;22.33;;;17.83;;
25525;SDS011;13424;48.424;11.258;2022-08-19T00:09:26;19.83;;;15.27;;
25525;SDS011;13424;48.424;11.258;2022-08-19T00:11:56;20.08;;;16.45;;
25525;SDS011;13424;48.424;11.258;2022-08-19T00:14:25;20.85;;;17.10;;
25525;SDS011;13424;48.424;11.258;2022-08-19T00:16:52;20.02;;;17.13;;
25525;SDS011;13424;48.424;11.258;2022-08-19T00:19:20;20.15;;;16.13;;
25525;SDS011;13424;48.424;11.258;2022-08-19T00:21:47;21.40;;;16.23;;
25525;SDS011;13424;48.424;11.258;2022-08-19T00:24:14;19.95;;;15.98;;
25525;SDS011;13424;48.424;11.258;2022-08-19T00:26:41;20.63;;;15.95;;
25525;SDS011;13424;48.424;11.258;2022-08-19T00:29:10;18.50;;;15.43;;
25525;SDS011;13424;48.424;11.258;2022-08-19T00:31:39;18.95;;;14.85;;
25525;SDS011;13424;48.424;11.258;2022-08-19T00:34:06;18.00;;;13.90;;
25525;SDS011;13424;48.424;11.258;2022-08-19T00:36:32;17.08;;;12.55;;
25525;SDS011;13424;48.424;11.258;2022-08-19T00:38:59;15.57;;;11.95;;
25525;SDS011;13424;48.424;11.258;2022-08-19T00:41:26;14.35;;;12.70;;
25525;SDS011;13424;48.424;11.258;2022-08-19T00:44:11;11.77;;;10.27;;
25525;SDS011;13424;48.424;11.258;2022-08-19T00:46:45;10.70;;;9.55;;
25525;SDS011;13424;48.424;11.258;2022-08-19T00:49:23;12.55;;;10.45;;
25525;SDS011;13424;48.424;11.258;2022-08-19T00:52:08;13.20;;;10.27;;
25525;SDS011;13424;48.424;11.258;2022-08-19T00:54:39;11.88;;;9.63;;
25525;SDS011;13424;48.424;11.258;2022-08-19T00:57:09;11.00;;;9.85;;
25525;SDS011;13424;48.424;11.258;2022-08-19T00:59:41;12.10;;;9.45;;
25525;SDS011;13424;48.424;11.258;2022-08-19T01:02:09;10.32;;;9.23;;
25525;SDS011;13424;48.424;11.258;2022-08-19T01:04:35;10.63;;;8.75;;
25525;SDS011;13424;48.424;11.258;2022-08-19T01:07:01;10.57;;;9.48;;
25525;SDS011;13424;48.424;11.258;2022-08-19T01:09:28;10.32;;;9.23;;
25525;SDS011;13424;48.424;11.258;2022-08-19T01:11:55;11.93;;;8.93;;
25525;SDS011;13424;48.424;11.258;2022-08-19T01:14:22;9.88;;;8.38;;
25525;SDS011;13424;48.424;11.258;2022-08-19T01:16:49;8.80;;;7.90;;
25525;SDS011;13424;48.424;11.258;2022-08-19T01:19:29;11.70;;;8.05;;
25525;SDS011;13424;48.424;11.258;2022-08-19T01:22:06;8.25;;;7.32;;
25525;SDS011;13424;48.424;11.258;2022-08-19T01:24:43;8.82;;;7.20;;
25525;SDS011;13424;48.424;11.258;2022-08-19T01:27:09;8.77;;;7.57;;
25525;SDS011;13424;48.424;11.258;2022-08-19T01:29:39;9.57;;;8.50;;
25525;SDS011;13424;48.424;11.258;2022-08-19T01:32:09;8.85;;;7.95;;
25525;SDS011;13424;48.424;11.258;2022-08-19T01:34:40;10.02;;;7.15;;
25525;SDS011;13424;48.424;11.258;2022-08-19T01:37:08;8.35;;;6.30;;
25525;SDS011;13424;48.424;11.258;2022-08-19T01:39:38;7.70;;;6.90;;
25525;SDS011;13424;48.424;11.258;2022-08-19T01:42:06;8.38;;;7.28;;
25525;SDS011;13424;48.424;11.258;2022-08-19T01:44:37;7.32;;;6.60;;
25525;SDS011;13424;48.424;11.258;2022-08-19T01:47:07;7.40;;;6.63;;
25525;SDS011;13424;48.424;11.258;2022-08-19T01:49:34;7.10;;;6.35;;
25525;SDS011;13424;48.424;11.258;2022-08-19T01:52:04;7.65;;;6.85;;
25525;SDS011;13424;48.424;11.258;2022-08-19T01:54:30;8.35;;;6.55;;
25525;SDS011;13424;48.424;11.258;2022-08-19T01:57:06;6.93;;;6.28;;
25525;SDS011;13424;48.424;11.258;2022-08-19T01:59:36;7.07;;;6.38;;
25525;SDS011;13424;48.424;11.258;2022-08-19T02:02:04;7.90;;;5.88;;
25525;SDS011;13424;48.424;11.258;2022-08-19T02:04:34;6.72;;;6.07;;
25525;SDS011;13424;48.424;11.258;2022-08-19T02:07:01;8.10;;;6.47;;
25525;SDS011;13424;48.424;11.258;2022-08-19T02:09:27;7.68;;;6.95;;
25525;SDS011;13424;48.424;11.258;2022-08-19T02:11:53;7.78;;;6.97;;
25525;SDS011;13424;48.424;11.258;2022-08-19T02:14:19;9.77;;;8.05;;
25525;SDS011;13424;48.424;11.258;2022-08-19T02:16:45;8.40;;;7.32;;
25525;SDS011;13424;48.424;11.258;2022-08-19T02:19:11;10.68;;;7.35;;
25525;SDS011;13424;48.424;11.258;2022-08-19T02:21:37;8.25;;;7.40;;
25525;SDS011;13424;48.424;11.258;2022-08-19T02:24:03;9.35;;;7.43;;
25525;SDS011;13424;48.424;11.258;2022-08-19T02:26:29;7.75;;;6.93;;
25525;SDS011;13424;48.424;11.258;2022-08-19T02:28:56;8.27;;;7.47;;
25525;SDS011;13424;48.424;11.258;2022-08-19T02:31:24;8.65;;;7.38;;
25525;SDS011;13424;48.424;11.258;2022-08-19T02:33:53;9.43;;;8.50;;
25525;SDS011;13424;48.424;11.258;2022-08-19T02:36:21;9.25;;;8.35;;
25525;SDS011;13424;48.424;11.258;2022-08-19T02:38:48;11.23;;;9.02;;
25525;SDS011;13424;48.424;11.258;2022-08-19T02:41:17;13.32;;;8.90;;
25525;SDS011;13424;48.424;11.258;2022-08-19T02:43:51;11.50;;;8.40;;
25525;SDS011;13424;48.424;11.258;2022-08-19T02:46:22;11.52;;;8.93;;
25525;SDS011;13424;48.424;11.258;2022-08-19T02:48:56;12.88;;;9.38;;
25525;SDS011;13424;48.424;11.258;2022-08-19T02:51:31;11.05;;;9.10;;
25525;SDS011;13424;48.424;11.258;2022-08-19T02:54:01;14.10;;;9.57;;
25525;SDS011;13424;48.424;11.258;2022-08-19T02:56:27;12.13;;;9.75;;
25525;SDS011;13424;48.424;11.258;2022-08-19T02:58:57;13.90;;;10.13;;
25525;SDS011;13424;48.424;11.258;2022-08-19T03:01:26;12.45;;;10.02;;
25525;SDS011;13424;48.424;11.258;2022-08-19T03:03:57;15.45;;;11.20;;
25525;SDS011;13424;48.424;11.258;2022-08-19T03:06:26;10.98;;;9.85;;
25525;SDS011;13424;48.424;11.258;2022-08-19T03:08:53;11.95;;;10.35;;
25525;SDS011;13424;48.424;11.258;2022-08-19T03:11:27;12.10;;;10.05;;
25525;SDS011;13424;48.424;11.258;2022-08-19T03:13:57;11.52;;;10.32;;
25525;SDS011;13424;48.424;11.258;2022-08-19T03:16:30;15.27;;;12.07;;
25525;SDS011;13424;48.424;11.258;2022-08-19T03:19:00;13.48;;;10.18;;
25525;SDS011;13424;48.424;11.258;2022-08-19T03:21:31;12.57;;;11.02;;
25525;SDS011;13424;48.424;11.258;2022-08-19T03:24:04;18.98;;;11.77;;
25525;SDS011;13424;48.424;11.258;2022-08-19T03:26:34;14.10;;;12.15;;
25525;SDS011;13424;48.424;11.258;2022-08-19T03:29:05;19.05;;;13.95;;
25525;SDS011;13424;48.424;11.258;2022-08-19T03:31:32;19.13;;;15.55;;
25525;SDS011;13424;48.424;11.258;2022-08-19T03:33:58;20.42;;;16.17;;
25525;SDS011;13424;48.424;11.258;2022-08-19T03:36:25;19.42;;;15.93;;
25525;SDS011;13424;48.424;11.258;2022-08-19T03:38:54;20.20;;;15.90;;
25525;SDS011;13424;48.424;11.258;2022-08-19T03:41:27;22.65;;;18.40;;
25525;SDS011;13424;48.424;11.258;2022-08-19T03:43:58;21.30;;;17.25;;
25525;SDS011;13424;48.424;11.258;2022-08-19T03:46:27;21.92;;;17.63;;
25525;SDS011;13424;48.424;11.258;2022-08-19T03:48:57;20.65;;;16.45;;
25525;SDS011;13424;48.424;11.258;2022-08-19T03:51:29;21.75;;;17.50;;
25525;SDS011;13424;48.424;11.258;2022-08-19T03:54:01;21.33;;;18.25;;
25525;SDS011;13424;48.424;11.258;2022-08-19T03:56:34;24.50;;;18.58;;
25525;SDS011;13424;48.424;11.258;2022-08-19T03:59:02;23.98;;;19.60;;
25525;SDS011;13424;48.424;11.258;2022-08-19T04:01:31;23.23;;;18.40;;
25525;SDS011;13424;48.424;11.258;2022-08-19T04:03:58;27.13;;;20.00;;
25525;SDS011;13424;48.424;11.258;2022-08-19T04:06:28;25.00;;;19.08;;
25525;SDS011;13424;48.424;11.258;2022-08-19T04:08:59;23.17;;;19.55;;
25525;SDS011;13424;48.424;11.258;2022-08-19T04:11:30;24.45;;;19.35;;
25525;SDS011;13424;48.424;11.258;2022-08-19T04:14:07;24.50;;;19.83;;
25525;SDS011;13424;48.424;11.258;2022-08-19T04:16:36;27.13;;;20.60;;
25525;SDS011;13424;48.424;11.258;2022-08-19T04:19:03;24.70;;;21.00;;
25525;SDS011;13424;48.424;11.258;2022-08-19T04:21:31;27.65;;;21.15;;
25525;SDS011;13424;48.424;11.258;2022-08-19T04:23:57;24.48;;;19.45;;
25525;SDS011;13424;48.424;11.258;2022-08-19T04:26:27;28.65;;;21.05;;
25525;SDS011;13424;48.424;11.258;2022-08-19T04:28:58;30.00;;;22.55;;
25525;SDS011;13424;48.424;11.258;2022-08-19T04:31:56;30.02;;;22.05;;
25525;SDS011;13424;48.424;11.258;2022-08-19T04:34:26;27.27;;;20.75;;
25525;SDS011;13424;48.424;11.258;2022-08-19T04:36:56;30.45;;;22.60;;
25525;SDS011;13424;48.424;11.258;2022-08-19T04:39:27;30.73;;;21.60;;
25525;SDS011;13424;48.424;11.258;2022-08-19T04:42:16;31.55;;;24.23;;
25525;SDS011;13424;48.424;11.258;2022-08-19T04:45:03;33.08;;;25.17;;
25525;SDS011;13424;48.424;11.258;2022-08-19T04:47:37;33.00;;;24.40;;
25525;SDS011;13424;48.424;11.258;2022-08-19T04:50:07;32.85;;;23.17;;
25525;SDS011;13424;48.424;11.258;2022-08-19T04:52:37;31.25;;;24.58;;
25525;SDS011;13424;48.424;11.258;2022-08-19T04:55:08;28.92;;;23.02;;
25525;SDS011;13424;48.424;11.258;2022-08-19T04:57:36;35.72;;;25.58;;
25525;SDS011;13424;48.424;11.258;2022-08-19T05:00:07;32.55;;;25.33;;
25525;SDS011;13424;48.424;11.258;2022-08-19T05:02:34;33.72;;;25.88;;
25525;SDS011;13424;48.424;11.258;2022-08-19T05:05:00;30.23;;;24.15;;
25525;SDS011;13424;48.424;11.258;2022-08-19T05:07:26;33.10;;;24.55;;
25525;SDS011;13424;48.424;11.258;2022-08-19T05:09:52;36.13;;;25.63;;
25525;SDS011;13424;48.424;11.258;2022-08-19T05:12:18;37.10;;;25.95;;
25525;SDS011;13424;48.424;11.258;2022-08-19T05:14:45;34.95;;;25.90;;
25525;SDS011;13424;48.424;11.258;2022-08-19T05:17:13;31.80;;;24.52;;
25525;SDS011;13424;48.424;11.258;2022-08-19T05:19:39;37.78;;;25.33;;
25525;SDS011;13424;48.424;11.258;2022-08-19T05:22:24;38.45;;;26.55;;
25525;SDS011;13424;48.424;11.258;2022-08-19T05:25:10;37.20;;;27.63;;
25525;SDS011;13424;48.424;11.258;2022-08-19T05:27:43;36.42;;;26.85;;
25525;SDS011;13424;48.424;11.258;2022-08-19T05:30:10;35.45;;;27.10;;
25525;SDS011;13424;48.424;11.258;2022-08-19T05:32:38;34.15;;;26.63;;
25525;SDS011;13424;48.424;11.258;2022-08-19T05:35:05;38.25;;;28.25;;
25525;SDS011;13424;48.424;11.258;2022-08-19T05:37:33;39.53;;;29.65;;
25525;SDS011;13424;48.424;11.258;2022-08-19T05:39:59;37.63;;;28.15;;
25525;SDS011;13424;48.424;11.258;2022-08-19T05:42:25;38.78;;;27.25;;
25525;SDS011;13424;48.424;11.258;2022-08-19T05:44:51;44.03;;;30.52;;
25525;SDS011;13424;48.424;11.258;2022-08-19T05:47:18;40.00;;;29.23;;
25525;SDS011;13424;48.424;11.258;2022-08-19T05:49:45;39.33;;;28.95;;
25525;SDS011;13424;48.424;11.258;2022-08-19T05:52:12;41.10;;;31.73;;
25525;SDS011;13424;48.424;11.258;2022-08-19T05:54:43;40.45;;;31.00;;
25525;SDS011;13424;48.424;11.258;2022-08-19T05:57:10;38.40;;;29.90;;
25525;SDS011;13424;48.424;11.258;2022-08-19T05:59:36;43.22;;;30.83;;
25525;SDS011;13424;48.424;11.258;2022-08-19T06:02:03;42.33;;;30.92;;
25525;SDS011;13424;48.424;11.258;2022-08-19T06:04:31;43.70;;;31.77;;
25525;SDS011;13424;48.424;11.258;2022-08-19T06:06:59;41.95;;;30.73;;
25525;SDS011;13424;48.424;11.258;2022-08-19T06:09:26;41.80;;;30.92;;
25525;SDS011;13424;48.424;11.258;2022-08-19T06:11:55;39.33;;;31.13;;
25525;SDS011;13424;48.424;11.258;2022-08-19T06:14:30;43.38;;;32.58;;
25525;SDS011;13424;48.424;11.258;2022-08-19T06:16:59;42.10;;;32.90;;
25525;SDS011;13424;48.424;11.258;2022-08-19T06:19:27;48.28;;;33.03;;
25525;SDS011;13424;48.424;11.258;2022-08-19T06:21:56;42.47;;;32.05;;
25525;SDS011;13424;48.424;11.258;2022-08-19T06:24:25;44.72;;;32.20;;
25525;SDS011;13424;48.424;11.258;2022-08-19T06:26:55;42.03;;;31.10;;
25525;SDS011;13424;48.424;11.258;2022-08-19T06:29:26;41.22;;;31.67;;
25525;SDS011;13424;48.424;11.258;2022-08-19T06:31:55;40.97;;;31.40;;
25525;SDS011;13424;48.424;11.258;2022-08-19T06:34:25;43.92;;;32.10;;
25525;SDS011;13424;48.424;11.258;2022-08-19T06:36:53;42.03;;;30.67;;
25525;SDS011;13424;48.424;11.258;2022-08-19T06:39:23;44.75;;;32.45;;
25525;SDS011;13424;48.424;11.258;2022-08-19T06:41:54;45.67;;;32.95;;
25525;SDS011;13424;48.424;11.258;2022-08-19T06:44:29;43.22;;;32.33;;
25525;SDS011;13424;48.424;11.258;2022-08-19T06:47:01;45.67;;;32.42;;
25525;SDS011;13424;48.424;11.258;2022-08-19T06:49:33;42.95;;;30.83;;
25525;SDS011;13424;48.424;11.258;2022-08-19T06:52:01;42.55;;;31.58;;
25525;SDS011;13424;48.424;11.258;2022-08-19T06:54:27;45.45;;;33.53;;
25525;SDS011;13424;48.424;11.258;2022-08-19T06:56:58;44.20;;;32.50;;
25525;SDS011;13424;48.424;11.258;2022-08-19T06:59:29;53.95;;;33.72;;
25525;SDS011;13424;48.424;11.258;2022-08-19T07:02:01;46.88;;;33.90;;
25525;SDS011;13424;48.424;11.258;2022-08-19T07:04:35;42.40;;;31.92;;
25525;SDS011;13424;48.424;11.258;2022-08-19T07:07:10;45.47;;;32.85;;
25525;SDS011;13424;48.424;11.258;2022-08-19T07:09:41;48.58;;;34.30;;
25525;SDS011;13424;48.424;11.258;2022-08-19T07:12:10;43.47;;;34.17;;
25525;SDS011;13424;48.424;11.258;2022-08-19T07:14:41;45.22;;;33.33;;
25525;SDS011;13424;48.424;11.258;2022-08-19T07:17:10;47.10;;;34.38;;
25525;SDS011;13424;48.424;11.258;2022-08-19T07:19:37;47.72;;;34.38;;
25525;SDS011;13424;48.424;11.258;2022-08-19T07:22:06;54.05;;;37.15;;
25525;SDS011;13424;48.424;11.258;2022-08-19T07:24:34;52.75;;;36.20;;
25525;SDS011;13424;48.424;11.258;2022-08-19T07:27:02;50.90;;;36.67;;
25525;SDS011;13424;48.424;11.258;2022-08-19T07:29:31;46.75;;;34.17;;
25525;SDS011;13424;48.424;11.258;2022-08-19T07:32:01;50.55;;;36.83;;
25525;SDS011;13424;48.424;11.258;2022-08-19T07:34:29;49.53;;;36.10;;
25525;SDS011;13424;48.424;11.258;2022-08-19T07:36:58;54.42;;;38.95;;
25525;SDS011;13424;48.424;11.258;2022-08-19T07:39:29;55.05;;;38.95;;
25525;SDS011;13424;48.424;11.258;2022-08-19T07:42:00;53.15;;;36.17;;
25525;SDS011;13424;48.424;11.258;2022-08-19T07:44:32;45.67;;;35.50;;
25525;SDS011;13424;48.424;11.258;2022-08-19T07:46:59;50.38;;;37.22;;
25525;SDS011;13424;48.424;11.258;2022-08-19T07:49:26;51.03;;;37.30;;
25525;SDS011;13424;48.424;11.258;2022-08-19T07:51:59;52.15;;;37.67;;
25525;SDS011;13424;48.424;11.258;2022-08-19T07:54:33;46.25;;;36.15;;
25525;SDS011;13424;48.424;11.258;2022-08-19T07:57:03;55.65;;;37.28;;
25525;SDS011;13424;48.424;11.258;2022-08-19T07:59:30;49.10;;;37.35;;
25525;SDS011;13424;48.424;11.258;2022-08-19T08:01:57;52.95;;;38.22;;
25525;SDS011;13424;48.424;11.258;2022-08-19T08:04:26;52.17;;;38.05;;
25525;SDS011;13424;48.424;11.258;2022-08-19T08:07:12;57.22;;;42.72;;
25525;SDS011;13424;48.424;11.258;2022-08-19T08:09:57;64.15;;;44.22;;
25525;SDS011;13424;48.424;11.258;2022-08-19T08:12:28;66.38;;;41.38;;
25525;SDS011;13424;48.424;11.258;2022-08-19T08:15:02;68.90;;;46.95;;
25525;SDS011;13424;48.424;11.258;2022-08-19T08:17:34;67.15;;;45.38;;
25525;SDS011;13424;48.424;11.258;2022-08-19T08:20:03;63.80;;;44.53;;
25525;SDS011;13424;48.424;11.258;2022-08-19T08:22:32;66.40;;;45.58;;
25525;SDS011;13424;48.424;11.258;2022-08-19T08:25:20;63.42;;;44.35;;
25525;SDS011;13424;48.424;11.258;2022-08-19T08:27:49;65.97;;;45.45;;
25525;SDS011;13424;48.424;11.258;2022-08-19T08:30:20;67.45;;;46.47;;
25525;SDS011;13424;48.424;11.258;2022-08-19T08:32:49;65.10;;;44.85;;
25525;SDS011;13424;48.424;11.258;2022-08-19T08:35:18;68.22;;;47.08;;
25525;SDS011;13424;48.424;11.258;2022-08-19T08:37:48;68.35;;;45.78;;
25525;SDS011;13424;48.424;11.258;2022-08-19T08:46:06;78.57;;;50.58;;
25525;SDS011;13424;48.424;11.258;2022-08-19T08:51:52;71.65;;;50.10;;
25525;SDS011;13424;48.424;11.258;2022-08-19T08:54:33;73.25;;;47.88;;
25525;SDS011;13424;48.424;11.258;2022-08-19T09:00:33;65.35;;;45.40;;
25525;SDS011;13424;48.424;11.258;2022-08-19T09:03:06;74.20;;;49.67;;
25525;SDS011;13424;48.424;11.258;2022-08-19T09:05:58;72.97;;;46.17;;
25525;SDS011;13424;48.424;11.258;2022-08-19T09:09:04;72.72;;;47.78;;
25525;SDS011;13424;48.424;11.258;2022-08-19T09:14:48;68.22;;;49.40;;
25525;SDS011;13424;48.424;11.258;2022-08-19T09:17:27;69.78;;;46.55;;
25525;SDS011;13424;48.424;11.258;2022-08-19T09:19:57;66.72;;;46.25;;
25525;SDS011;13424;48.424;11.258;2022-08-19T09:22:47;72.45;;;49.88;;
25525;SDS011;13424;48.424;11.258;2022-08-19T09:25:17;73.00;;;50.00;;
25525;SDS011;13424;48.424;11.258;2022-08-19T09:27:48;72.97;;;48.05;;
25525;SDS011;13424;48.424;11.258;2022-08-19T09:30:26;74.20;;;49.78;;
25525;SDS011;13424;48.424;11.258;2022-08-19T09:32:55;74.30;;;51.38;;
25525;SDS011;13424;48.424;11.258;2022-08-19T09:35:23;75.82;;;53.00;;
25525;SDS011;13424;48.424;11.258;2022-08-19T09:37:52;76.67;;;51.83;;
25525;SDS011;13424;48.424;11.258;2022-08-19T09:40:18;81.13;;;49.88;;
25525;SDS011;13424;48.424;11.258;2022-08-19T09:42:45;73.22;;;50.83;;
25525;SDS011;13424;48.424;11.258;2022-08-19T09:45:13;75.13;;;49.20;;
25525;SDS011;13424;48.424;11.258;2022-08-19T09:47:42;77.75;;;49.95;;
25525;SDS011;13424;48.424;11.258;2022-08-19T09:50:10;76.15;;;51.83;;
25525;SDS011;13424;48.424;11.258;2022-08-19T09:52:37;74.38;;;50.05;;
25525;SDS011;13424;48.424;11.258;2022-08-19T09:55:05;72.85;;;50.22;;
25525;SDS011;13424;48.424;11.258;2022-08-19T09:57:33;66.53;;;47.55;;
25525;SDS011;13424;48.424;11.258;2022-08-19T10:00:00;62.05;;;44.00;;
25525;SDS011;13424;48.424;11.258;2022-08-19T10:02:33;71.68;;;44.10;;
25525;SDS011;13424;48.424;11.258;2022-08-19T10:05:00;64.15;;;44.95;;
25525;SDS011;13424;48.424;11.258;2022-08-19T10:07:44;69.68;;;45.53;;
25525;SDS011;13424;48.424;11.258;2022-08-19T10:10:10;68.18;;;44.88;;
25525;SDS011;13424;48.424;11.258;2022-08-19T10:12:37;67.68;;;46.17;;
25525;SDS011;13424;48.424;11.258;2022-08-19T10:15:04;60.05;;;43.92;;
25525;SDS011;13424;48.424;11.258;2022-08-19T10:17:31;62.30;;;42.28;;
25525;SDS011;13424;48.424;11.258;2022-08-19T10:20:00;55.58;;;39.17;;
25525;SDS011;13424;48.424;11.258;2022-08-19T10:22:29;54.65;;;37.63;;
25525;SDS011;13424;48.424;11.258;2022-08-19T10:24:55;45.22;;;33.75;;
25525;SDS011;13424;48.424;11.258;2022-08-19T10:27:21;44.78;;;32.47;;
25525;SDS011;13424;48.424;11.258;2022-08-19T10:29:47;43.15;;;31.38;;
25525;SDS011;13424;48.424;11.258;2022-08-19T10:32:13;46.90;;;33.55;;
25525;SDS011;13424;48.424;11.258;2022-08-19T10:34:40;47.90;;;33.40;;
25525;SDS011;13424;48.424;11.258;2022-08-19T10:37:06;43.47;;;33.20;;
25525;SDS011;13424;48.424;11.258;2022-08-19T10:39:33;41.78;;;31.05;;
25525;SDS011;13424;48.424;11.258;2022-08-19T10:42:05;41.35;;;29.42;;
25525;SDS011;13424;48.424;11.258;2022-08-19T10:44:33;32.40;;;23.23;;
25525;SDS011;13424;48.424;11.258;2022-08-19T10:47:00;22.20;;;17.48;;
25525;SDS011;13424;48.424;11.258;2022-08-19T10:49:28;24.02;;;18.73;;
25525;SDS011;13424;48.424;11.258;2022-08-19T10:51:55;21.63;;;18.38;;
25525;SDS011;13424;48.424;11.258;2022-08-19T10:55:01;12.35;;;10.23;;
25525;SDS011;13424;48.424;11.258;2022-08-19T10:57:49;17.48;;;13.38;;
25525;SDS011;13424;48.424;11.258;2022-08-19T11:00:15;16.75;;;13.80;;
25525;SDS011;13424;48.424;11.258;2022-08-19T11:02:42;16.45;;;14.10;;
25525;SDS011;13424;48.424;11.258;2022-08-19T11:05:08;16.90;;;12.52;;
25525;SDS011;13424;48.424;11.258;2022-08-19T11:07:39;10.88;;;7.47;;
25525;SDS011;13424;48.424;11.258;2022-08-19T11:10:07;10.38;;;7.72;;
25525;SDS011;13424;48.424;11.258;2022-08-19T11:12:39;12.50;;;9.75;;
25525;SDS011;13424;48.424;11.258;2022-08-19T11:15:07;16.52;;;11.05;;
25525;SDS011;13424;48.424;11.258;2022-08-19T11:17:37;13.98;;;11.20;;
25525;SDS011;13424;48.424;11.258;2022-08-19T11:20:09;10.10;;;9.07;;
25525;SDS011;13424;48.424;11.258;2022-08-19T11:22:40;13.20;;;9.65;;
25525;SDS011;13424;48.424;11.258;2022-08-19T11:25:09;14.25;;;10.52;;
25525;SDS011;13424;48.424;11.258;2022-08-19T11:27:42;14.20;;;10.80;;
25525;SDS011;13424;48.424;11.258;2022-08-19T11:30:11;13.20;;;10.65;;
25525;SDS011;13424;48.424;11.258;2022-08-19T11:32:39;10.05;;;8.55;;
25525;SDS011;13424;48.424;11.258;2022-08-19T11:35:06;10.75;;;9.50;;
25525;SDS011;13424;48.424;11.258;2022-08-19T11:37:33;11.95;;;8.25;;
25525;SDS011;13424;48.424;11.258;2022-08-19T11:40:04;10.88;;;8.40;;
25525;SDS011;13424;48.424;11.258;2022-08-19T11:42:31;9.77;;;8.02;;
25525;SDS011;13424;48.424;11.258;2022-08-19T11:45:15;11.35;;;10.15;;
25525;SDS011;13424;48.424;11.258;2022-08-19T11:47:41;10.77;;;8.90;;
25525;SDS011;13424;48.424;11.258;2022-08-19T11:50:08;10.07;;;8.23;;
25525;SDS011;13424;48.424;11.258;2022-08-19T11:52:34;8.75;;;7.38;;
25525;SDS011;13424;48.424;11.258;2022-08-19T11:55:01;9.50;;;8.13;;
25525;SDS011;13424;48.424;11.258;2022-08-19T11:57:27;8.98;;;6.90;;
25525;SDS011;13424;48.424;11.258;2022-08-19T11:59:54;9.30;;;7.55;;
25525;SDS011;13424;48.424;11.258;2022-08-19T12:02:20;10.43;;;8.00;;
25525;SDS011;13424;48.424;11.258;2022-08-19T12:04:46;10.35;;;8.05;;
25525;SDS011;13424;48.424;11.258;2022-08-19T12:07:13;9.45;;;8.45;;
25525;SDS011;13424;48.424;11.258;2022-08-19T12:09:39;13.35;;;10.93;;
25525;SDS011;13424;48.424;11.258;2022-08-19T12:12:05;13.48;;;11.02;;
25525;SDS011;13424;48.424;11.258;2022-08-19T12:14:31;14.95;;;12.30;;
25525;SDS011;13424;48.424;11.258;2022-08-19T12:16:58;15.15;;;12.10;;
25525;SDS011;13424;48.424;11.258;2022-08-19T12:19:24;14.30;;;12.55;;
25525;SDS011;13424;48.424;11.258;2022-08-19T12:21:50;14.93;;;12.48;;
25525;SDS011;13424;48.424;11.258;2022-08-19T12:24:18;14.45;;;12.13;;
25525;SDS011;13424;48.424;11.258;2022-08-19T12:26:48;12.35;;;9.88;;
25525;SDS011;13424;48.424;11.258;2022-08-19T12:29:14;11.23;;;9.18;;
25525;SDS011;13424;48.424;11.258;2022-08-19T12:31:40;10.93;;;8.95;;
25525;SDS011;13424;48.424;11.258;2022-08-19T12:34:06;11.23;;;8.32;;
25525;SDS011;13424;48.424;11.258;2022-08-19T12:36:32;8.35;;;7.00;;
25525;SDS011;13424;48.424;11.258;2022-08-19T12:38:58;8.20;;;6.85;;
25525;SDS011;13424;48.424;11.258;2022-08-19T12:41:25;9.27;;;7.82;;
25525;SDS011;13424;48.424;11.258;2022-08-19T12:43:51;8.70;;;7.40;;
25525;SDS011;13424;48.424;11.258;2022-08-19T12:46:18;9.25;;;8.07;;
25525;SDS011;13424;48.424;11.258;2022-08-19T12:48:45;8.00;;;6.93;;
25525;SDS011;13424;48.424;11.258;2022-08-19T12:51:14;7.28;;;6.07;;
25525;SDS011;13424;48.424;11.258;2022-08-19T12:53:43;6.22;;;5.57;;
25525;SDS011;13424;48.424;11.258;2022-08-19T12:56:10;8.68;;;6.00;;
25525;SDS011;13424;48.424;11.258;2022-08-19T12:58:39;7.88;;;6.10;;
25525;SDS011;13424;48.424;11.258;2022-08-19T13:01:14;7.05;;;5.70;;
25525;SDS011;13424;48.424;11.258;2022-08-19T13:03:42;6.72;;;5.82;;
25525;SDS011;13424;48.424;11.258;2022-08-19T13:06:10;5.97;;;5.38;;
25525;SDS011;13424;48.424;11.258;2022-08-19T13:08:36;5.15;;;4.63;;
25525;SDS011;13424;48.424;11.258;2022-08-19T13:11:08;5.07;;;4.57;;
25525;SDS011;13424;48.424;11.258;2022-08-19T13:13:39;6.65;;;4.70;;
25525;SDS011;13424;48.424;11.258;2022-08-19T13:16:09;6.57;;;4.80;;
25525;SDS011;13424;48.424;11.258;2022-08-19T13:18:36;5.85;;;5.25;;
25525;SDS011;13424;48.424;11.258;2022-08-19T13:21:05;5.07;;;4.57;;
25525;SDS011;13424;48.424;11.258;2022-08-19T13:23:34;5.03;;;4.45;;
25525;SDS011;13424;48.424;11.258;2022-08-19T13:26:03;6.65;;;5.50;;
25525;SDS011;13424;48.424;11.258;2022-08-19T13:28:32;7.93;;;6.68;;
25525;SDS011;13424;48.424;11.258;2022-08-19T13:31:19;9.13;;;7.38;;
25525;SDS011;13424;48.424;11.258;2022-08-19T13:34:06;9.52;;;8.52;;
25525;SDS011;13424;48.424;11.258;2022-08-19T13:36:34;11.57;;;8.52;;
25525;SDS011;13424;48.424;11.258;2022-08-19T13:39:00;12.07;;;9.80;;
25525;SDS011;13424;48.424;11.258;2022-08-19T13:41:27;10.80;;;9.15;;
25525;SDS011;13424;48.424;11.258;2022-08-19T13:43:53;14.35;;;11.02;;
25525;SDS011;13424;48.424;11.258;2022-08-19T13:46:20;15.05;;;12.18;;
25525;SDS011;13424;48.424;11.258;2022-08-19T13:48:47;17.80;;;14.25;;
25525;SDS011;13424;48.424;11.258;2022-08-19T13:51:14;20.20;;;16.35;;
25525;SDS011;13424;48.424;11.258;2022-08-19T13:53:42;21.88;;;17.60;;
25525;SDS011;13424;48.424;11.258;2022-08-19T13:56:11;23.90;;;18.95;;
25525;SDS011;13424;48.424;11.258;2022-08-19T13:58:40;25.77;;;20.02;;
25525;SDS011;13424;48.424;11.258;2022-08-19T14:01:06;23.65;;;19.88;;
25525;SDS011;13424;48.424;11.258;2022-08-19T14:03:34;23.48;;;18.92;;
25525;SDS011;13424;48.424;11.258;2022-08-19T14:06:02;29.42;;;21.73;;
25525;SDS011;13424;48.424;11.258;2022-08-19T14:08:28;28.80;;;21.98;;
25525;SDS011;13424;48.424;11.258;2022-08-19T14:10:55;28.80;;;22.05;;
25525;SDS011;13424;48.424;11.258;2022-08-19T14:13:22;31.00;;;23.02;;
25525;SDS011;13424;48.424;11.258;2022-08-19T14:15:49;29.48;;;22.45;;
25525;SDS011;13424;48.424;11.258;2022-08-19T14:18:17;33.65;;;24.13;;
25525;SDS011;13424;48.424;11.258;2022-08-19T14:20:44;31.58;;;24.73;;
25525;SDS011;13424;48.424;11.258;2022-08-19T14:23:10;31.23;;;23.55;;
25525;SDS011;13424;48.424;11.258;2022-08-19T14:25:37;33.45;;;23.92;;
25525;SDS011;13424;48.424;11.258;2022-08-19T14:28:04;35.00;;;25.88;;
25525;SDS011;13424;48.424;11.258;2022-08-19T14:30:33;34.17;;;25.58;;
25525;SDS011;13424;48.424;11.258;2022-08-19T14:33:02;32.92;;;24.75;;
25525;SDS011;13424;48.424;11.258;2022-08-19T14:35:32;31.02;;;25.02;;
25525;SDS011;13424;48.424;11.258;2022-08-19T14:38:00;34.15;;;25.25;;
25525;SDS011;13424;48.424;11.258;2022-08-19T14:40:30;34.60;;;24.75;;
25525;SDS011;13424;48.424;11.258;2022-08-19T14:43:00;34.00;;;23.00;;
25525;SDS011;13424;48.424;11.258;2022-08-19T14:45:35;29.35;;;21.40;;